Time;durP1;ratioP1;P1;durP2;ratioP2;P2;SDS_P1;SDS_P2;PMS_P1;PMS_P2;Temp;Humidity;BMP_temperature;BMP_pressure;BME280_temperature;BME280_humidity;BME280_pressure;Samples;Min_cycle;Max_cycle;Signal;HPM_P1;HPM_P2
2022/10/09 00:01:48;;;;;;;6.50;2.87;;;7.80;56.80;;;;;;5005616;28;20934;-47
2022/10/09 00:04:15;;;;;;;4.93;1.93;;;7.70;65.00;;;;;;5003898;28;20531;-47
2022/10/09 00:06:41;;;;;;;4.67;2.40;;;7.70;59.60;;;;;;5007616;28;20519;-47
2022/10/09 00:09:08;;;;;;;5.30;1.63;;;7.60;58.60;;;;;;5009042;28;20464;-49
2022/10/09 00:11:35;;;;;;;4.67;2.00;;;7.60;51.30;;;;;;5004387;28;20492;-49
2022/10/09 00:14:03;;;;;;;5.23;2.30;;;7.50;44.60;;;;;;5007096;28;20463;-49
2022/10/09 00:16:30;;;;;;;8.17;2.30;;;7.50;43.30;;;;;;5008146;28;20511;-49
2022/10/09 00:18:57;;;;;;;3.33;1.80;;;7.50;38.30;;;;;;5008188;28;20514;-49
2022/10/09 00:21:26;;;;;;;4.40;1.83;;;7.40;39.00;;;;;;5006176;28;20942;-48
2022/10/09 00:23:56;;;;;;;2.40;2.10;;;7.40;35.50;;;;;;5007682;28;20553;-48
2022/10/09 00:26:23;;;;;;;5.50;1.90;;;7.40;38.50;;;;;;5006303;28;21021;-50
2022/10/09 00:28:50;;;;;;;4.67;2.37;;;7.40;35.00;;;;;;5012848;28;20537;-48
2022/10/09 00:31:18;;;;;;;3.73;2.00;;;7.30;40.20;;;;;;5012491;28;20600;-48
2022/10/09 00:33:45;;;;;;;5.67;2.07;;;7.30;37.50;;;;;;5010199;28;20515;-48
2022/10/09 00:36:14;;;;;;;11.03;2.83;;;7.30;38.10;;;;;;5011219;28;20965;-49
2022/10/09 00:38:43;;;;;;;5.13;2.17;;;7.30;38.10;;;;;;5010203;28;20542;-49
2022/10/09 00:41:14;;;;;;;3.30;1.73;;;7.30;39.30;;;;;;5009341;28;20463;-48
2022/10/09 00:43:47;;;;;;;3.90;2.50;;;7.30;46.70;;;;;;5011096;28;20463;-49
2022/10/09 00:46:25;;;;;;;3.17;2.10;;;7.20;53.70;;;;;;5012407;28;20921;-49
2022/10/09 00:48:59;;;;;;;5.03;1.43;;;7.20;48.90;;;;;;5011256;28;20487;-49
2022/10/09 00:51:28;;;;;;;4.80;2.30;;;7.20;53.70;;;;;;5010323;28;20491;-48
2022/10/09 00:53:54;;;;;;;7.33;2.60;;;7.10;50.70;;;;;;5010017;28;20595;-49
2022/10/09 00:56:21;;;;;;;7.83;2.70;;;7.10;54.10;;;;;;5009102;28;20518;-49
2022/10/09 00:58:53;;;;;;;8.93;1.80;;;7.00;53.80;;;;;;5012460;28;20977;-49
2022/10/09 01:01:21;;;;;;;8.73;2.07;;;7.00;49.20;;;;;;5009200;28;20498;-49
2022/10/09 01:03:47;;;;;;;3.87;2.03;;;7.00;51.90;;;;;;5012017;28;20518;-49
2022/10/09 01:06:18;;;;;;;1.93;1.83;;;7.00;53.30;;;;;;5008191;28;21030;-49
2022/10/09 01:08:49;;;;;;;3.23;2.10;;;7.00;50.90;;;;;;5007843;28;20476;-49
2022/10/09 01:11:25;;;;;;;3.07;1.87;;;7.00;46.90;;;;;;5008266;28;20488;-49
2022/10/09 01:13:58;;;;;;;3.97;1.87;;;6.90;54.30;;;;;;5009267;28;20483;-49
2022/10/09 01:16:30;;;;;;;3.10;2.30;;;6.80;51.20;;;;;;5009187;28;20538;-49
2022/10/09 01:19:03;;;;;;;3.13;2.27;;;6.80;54.40;;;;;;5008892;28;20513;-49
2022/10/09 01:21:35;;;;;;;7.07;2.40;;;6.80;54.80;;;;;;5006074;28;20492;-49
2022/10/09 01:24:16;;;;;;;3.17;2.20;;;6.80;50.30;;;;;;5007717;28;20460;-49
2022/10/09 01:27:05;;;;;;;4.47;2.20;;;6.80;39.50;;;;;;5007571;28;20511;-49
2022/10/09 01:29:36;;;;;;;2.40;2.00;;;6.90;39.00;;;;;;5010484;28;20502;-49
2022/10/09 01:32:04;;;;;;;6.20;2.17;;;6.80;44.90;;;;;;5007680;28;20460;-49
2022/10/09 01:34:32;;;;;;;4.80;2.07;;;6.80;53.20;;;;;;5010095;28;20459;-48
2022/10/09 01:36:59;;;;;;;6.90;2.23;;;6.70;51.80;;;;;;5008354;28;20534;-49
2022/10/09 01:39:27;;;;;;;3.80;2.80;;;6.70;49.60;;;;;;5008624;28;20487;-49
2022/10/09 01:41:54;;;;;;;2.00;1.80;;;6.60;53.40;;;;;;5007620;28;20495;-49
2022/10/09 01:44:24;;;;;;;7.40;2.43;;;6.60;51.40;;;;;;5012289;28;20899;-48
2022/10/09 01:46:51;;;;;;;2.10;1.90;;;6.60;56.50;;;;;;5001020;28;20492;-49
2022/10/09 01:49:37;;;;;;;3.63;1.93;;;6.60;49.50;;;;;;5008546;28;20523;-49
2022/10/09 01:52:12;;;;;;;3.00;1.87;;;6.50;55.40;;;;;;5008044;28;20513;-49
2022/10/09 01:54:48;;;;;;;2.50;2.17;;;6.50;53.30;;;;;;5010721;28;20514;-49
2022/10/09 01:57:23;;;;;;;2.93;2.47;;;6.50;56.30;;;;;;5008121;28;20537;-49
2022/10/09 01:59:52;;;;;;;5.03;2.53;;;6.40;54.20;;;;;;5005064;28;20455;-49
2022/10/09 02:02:20;;;;;;;3.90;2.00;;;6.50;50.90;;;;;;5004051;28;20491;-49
2022/10/09 02:04:49;;;;;;;7.10;2.33;;;6.50;51.40;;;;;;5008202;28;20981;-49
2022/10/09 02:07:17;;;;;;;6.50;2.30;;;6.60;43.70;;;;;;5010939;28;20549;-50
2022/10/09 02:09:45;;;;;;;3.47;2.70;;;6.50;53.20;;;;;;5009932;28;20492;-49
2022/10/09 02:12:14;;;;;;;3.77;2.00;;;6.60;48.20;;;;;;5005178;28;20492;-49
2022/10/09 02:14:41;;;;;;;3.53;2.03;;;6.50;53.80;;;;;;5007623;28;20525;-49
2022/10/09 02:17:14;;;;;;;4.60;2.27;;;6.50;52.70;;;;;;5007560;28;20519;-49
2022/10/09 02:19:47;;;;;;;4.67;2.40;;;6.50;54.50;;;;;;5005798;28;20861;-48
2022/10/09 02:22:18;;;;;;;3.00;2.40;;;6.50;56.20;;;;;;5006959;28;20875;-49
2022/10/09 02:24:45;;;;;;;4.27;2.77;;;6.50;47.70;;;;;;5008393;28;20488;-50
2022/10/09 02:27:13;;;;;;;3.80;2.33;;;6.50;50.10;;;;;;5008868;28;20521;-48
2022/10/09 02:29:41;;;;;;;5.03;2.47;;;6.50;49.20;;;;;;5009545;28;20484;-49
2022/10/09 02:32:10;;;;;;;2.87;2.50;;;6.50;49.10;;;;;;5005605;28;20507;-49
2022/10/09 02:34:36;;;;;;;5.57;2.93;;;6.50;48.40;;;;;;5009564;28;20525;-48
2022/10/09 02:37:03;;;;;;;4.30;2.43;;;6.50;47.60;;;;;;5009476;28;20475;-48
2022/10/09 02:39:30;;;;;;;6.00;2.90;;;6.40;56.20;;;;;;5009386;28;20515;-48
2022/10/09 02:41:56;;;;;;;2.80;2.20;;;6.40;50.80;;;;;;5008887;28;21225;-49
2022/10/09 02:44:23;;;;;;;6.10;2.50;;;6.40;52.70;;;;;;5009035;28;21063;-49
2022/10/09 02:46:49;;;;;;;3.87;2.30;;;6.40;48.60;;;;;;5008573;28;20480;-49
2022/10/09 02:49:17;;;;;;;5.50;2.53;;;6.40;49.20;;;;;;5007784;28;20519;-49
2022/10/09 02:51:44;;;;;;;4.00;2.77;;;6.40;50.30;;;;;;5009712;28;20832;-49
2022/10/09 02:54:11;;;;;;;2.47;2.20;;;6.40;53.80;;;;;;5007465;28;20968;-50
2022/10/09 02:56:37;;;;;;;4.40;1.90;;;6.40;42.60;;;;;;5008831;28;20531;-49
2022/10/09 02:59:04;;;;;;;7.50;2.47;;;6.40;41.00;;;;;;5008666;28;20525;-49
2022/10/09 03:01:30;;;;;;;6.30;3.10;;;6.40;49.30;;;;;;5008090;28;20451;-50
2022/10/09 03:03:57;;;;;;;4.20;2.73;;;6.30;48.70;;;;;;5006370;28;20504;-50
2022/10/09 03:06:27;;;;;;;11.80;2.67;;;6.30;50.10;;;;;;5008476;28;20548;-50
2022/10/09 03:08:54;;;;;;;6.37;2.20;;;6.30;49.20;;;;;;5010411;28;20960;-50
2022/10/09 03:11:22;;;;;;;6.03;2.20;;;6.20;48.90;;;;;;5007697;28;20564;-49
2022/10/09 03:13:49;;;;;;;4.93;2.53;;;6.20;38.90;;;;;;5008443;28;21036;-49
2022/10/09 03:16:18;;;;;;;6.53;2.33;;;6.20;39.60;;;;;;5005792;28;20537;-49
2022/10/09 03:18:45;;;;;;;4.63;2.10;;;6.30;30.80;;;;;;5009509;28;20459;-49
2022/10/09 03:21:14;;;;;;;5.10;2.90;;;6.20;41.50;;;;;;5006319;28;20467;-50
2022/10/09 03:23:43;;;;;;;8.90;4.83;;;6.20;35.70;;;;;;5006645;28;20503;-49
2022/10/09 03:26:11;;;;;;;5.77;3.40;;;6.20;37.90;;;;;;5004302;28;20511;-49
2022/10/09 03:28:38;;;;;;;5.80;3.40;;;6.20;40.30;;;;;;5007811;28;20515;-49
2022/10/09 03:31:06;;;;;;;5.87;2.97;;;6.20;35.60;;;;;;5004521;28;20835;-50
2022/10/09 03:33:33;;;;;;;12.73;3.73;;;6.20;41.00;;;;;;5008614;28;20468;-49
2022/10/09 03:36:00;;;;;;;5.47;2.97;;;6.10;45.90;;;;;;5010419;28;20966;-48
2022/10/09 03:38:27;;;;;;;4.80;2.70;;;6.10;43.90;;;;;;5007862;28;20561;-48
2022/10/09 03:40:55;;;;;;;2.90;2.50;;;6.10;41.90;;;;;;5006820;28;20603;-49
2022/10/09 03:43:21;;;;;;;3.70;2.33;;;6.10;47.20;;;;;;5010843;28;20518;-49
2022/10/09 03:45:48;;;;;;;2.90;2.20;;;6.10;41.40;;;;;;5004765;28;20545;-49
2022/10/09 03:48:14;;;;;;;7.10;2.77;;;6.10;44.70;;;;;;5006121;28;20515;-49
2022/10/09 03:50:41;;;;;;;6.17;3.23;;;6.10;42.80;;;;;;5004776;28;20490;-48
2022/10/09 03:53:09;;;;;;;4.50;2.30;;;6.00;42.10;;;;;;5007306;28;20530;-49
2022/10/09 03:55:36;;;;;;;4.77;2.40;;;6.10;45.90;;;;;;5007332;28;20467;-49
2022/10/09 03:58:04;;;;;;;4.97;2.67;;;6.10;49.80;;;;;;5005705;28;20545;-49
2022/10/09 04:00:31;;;;;;;2.53;2.20;;;6.00;45.10;;;;;;5007723;28;20487;-49
2022/10/09 04:02:58;;;;;;;5.80;2.70;;;6.00;49.70;;;;;;5007444;28;20517;-48
2022/10/09 04:05:24;;;;;;;5.23;2.33;;;5.90;53.80;;;;;;5009083;28;20487;-49
2022/10/09 04:07:51;;;;;;;1.90;1.80;;;5.90;51.10;;;;;;5010141;28;20518;-49
2022/10/09 04:10:18;;;;;;;4.13;2.43;;;5.80;53.20;;;;;;5012543;28;20965;-49
2022/10/09 04:12:44;;;;;;;2.97;2.07;;;5.80;49.00;;;;;;5007691;28;20542;-49
2022/10/09 04:15:12;;;;;;;1.60;1.50;;;5.80;50.60;;;;;;5004766;28;20460;-50
2022/10/09 04:17:39;;;;;;;2.20;2.10;;;5.70;50.80;;;;;;5010825;28;20482;-49
2022/10/09 04:20:06;;;;;;;3.47;2.00;;;5.70;53.10;;;;;;5011237;28;20969;-49
2022/10/09 04:22:33;;;;;;;5.00;2.17;;;5.60;51.80;;;;;;5011771;28;20513;-49
2022/10/09 04:24:59;;;;;;;4.70;2.30;;;5.70;50.60;;;;;;5011006;28;20529;-48
2022/10/09 04:27:26;;;;;;;2.93;1.80;;;5.60;53.90;;;;;;5009621;28;20484;-48
2022/10/09 04:29:53;;;;;;;2.67;2.20;;;5.60;60.00;;;;;;5008652;28;20511;-48
2022/10/09 04:32:20;;;;;;;3.00;2.00;;;5.60;59.90;;;;;;5010787;28;20815;-48
2022/10/09 04:34:47;;;;;;;4.67;2.37;;;5.60;48.70;;;;;;5008949;28;20608;-48
2022/10/09 04:37:14;;;;;;;4.90;2.40;;;5.60;51.00;;;;;;5006098;28;20515;-47
2022/10/09 04:39:40;;;;;;;5.00;2.40;;;5.50;56.60;;;;;;5009483;28;20521;-48
2022/10/09 04:42:07;;;;;;;6.60;2.43;;;5.50;52.90;;;;;;5009575;28;20521;-48
2022/10/09 04:44:34;;;;;;;5.13;2.87;;;5.50;47.60;;;;;;5011195;28;20522;-48
2022/10/09 04:47:00;;;;;;;5.00;2.47;;;5.40;44.60;;;;;;5010357;28;20513;-48
2022/10/09 04:49:28;;;;;;;6.87;3.00;;;5.50;42.90;;;;;;5009979;28;21943;-48
2022/10/09 04:51:55;;;;;;;7.53;3.00;;;5.40;50.40;;;;;;5005395;28;20464;-48
2022/10/09 04:54:21;;;;;;;8.57;2.80;;;5.40;43.00;;;;;;5008178;28;20495;-48
2022/10/09 04:56:48;;;;;;;9.83;3.77;;;5.30;51.90;;;;;;5012302;28;21041;-48
2022/10/09 04:59:15;;;;;;;6.37;2.90;;;5.30;51.60;;;;;;5007247;28;20596;-48
2022/10/09 05:01:41;;;;;;;4.93;2.50;;;5.40;38.60;;;;;;5007266;28;20554;-48
2022/10/09 05:04:08;;;;;;;8.67;3.30;;;5.40;43.20;;;;;;5009048;28;20876;-47
2022/10/09 05:06:36;;;;;;;5.50;3.60;;;5.40;51.20;;;;;;5010041;28;20516;-48
2022/10/09 05:09:03;;;;;;;6.03;3.50;;;5.40;47.00;;;;;;5008866;28;20589;-49
2022/10/09 05:11:30;;;;;;;7.17;3.70;;;5.40;50.60;;;;;;5006145;28;20521;-48
2022/10/09 05:13:58;;;;;;;4.03;2.90;;;5.40;44.80;;;;;;5009691;28;20467;-48
2022/10/09 05:16:26;;;;;;;4.57;3.37;;;5.30;42.60;;;;;;5009202;28;20487;-48
2022/10/09 05:18:54;;;;;;;6.93;3.20;;;5.30;45.30;;;;;;5009962;28;20486;-48
2022/10/09 05:21:22;;;;;;;5.00;2.77;;;5.30;48.10;;;;;;5012923;28;21036;-48
2022/10/09 05:23:50;;;;;;;5.70;3.70;;;5.20;57.90;;;;;;5007928;28;20514;-48
2022/10/09 05:26:19;;;;;;;6.43;3.97;;;5.20;53.70;;;;;;5015264;28;21003;-48
2022/10/09 05:28:46;;;;;;;6.37;3.70;;;5.20;52.90;;;;;;5007134;28;21162;-48
2022/10/09 05:31:18;;;;;;;6.53;3.93;;;5.20;51.40;;;;;;5003782;28;20549;-48
2022/10/09 05:33:44;;;;;;;5.93;3.53;;;5.20;46.70;;;;;;5010762;28;20463;-47
2022/10/09 05:36:11;;;;;;;7.80;4.70;;;5.20;42.50;;;;;;5010898;28;20487;-48
2022/10/09 05:38:38;;;;;;;7.77;3.87;;;5.20;44.80;;;;;;5009931;28;20545;-48
2022/10/09 05:41:07;;;;;;;5.77;4.60;;;5.30;44.90;;;;;;5006254;28;20554;-48
2022/10/09 05:43:36;;;;;;;8.50;4.17;;;5.20;53.80;;;;;;5007811;28;20455;-48
2022/10/09 05:46:08;;;;;;;6.70;4.27;;;5.10;55.20;;;;;;5011991;28;20495;-48
2022/10/09 05:48:34;;;;;;;8.07;3.97;;;5.10;55.60;;;;;;5008223;28;20514;-48
2022/10/09 05:51:09;;;;;;;10.43;3.70;;;5.10;56.60;;;;;;5004300;28;20499;-48
2022/10/09 05:53:36;;;;;;;3.53;3.13;;;5.10;58.30;;;;;;5008875;28;20969;-47
2022/10/09 05:56:16;;;;;;;8.03;4.30;;;5.10;53.90;;;;;;5008529;28;20459;-47
2022/10/09 05:58:44;;;;;;;5.17;3.40;;;5.10;51.60;;;;;;5008841;28;20518;-48
2022/10/09 06:01:11;;;;;;;5.27;3.27;;;5.10;52.00;;;;;;5004268;28;20547;-48
2022/10/09 06:03:38;;;;;;;5.37;4.27;;;5.20;46.70;;;;;;5009421;28;20533;-48
2022/10/09 06:06:06;;;;;;;4.40;3.93;;;5.10;47.10;;;;;;5007381;28;20553;-48
2022/10/09 06:08:34;;;;;;;7.60;3.90;;;5.20;43.80;;;;;;5009859;28;20534;-48
2022/10/09 06:11:09;;;;;;;3.80;3.17;;;5.30;40.20;;;;;;5006663;28;20487;-48
2022/10/09 06:13:37;;;;;;;3.93;3.53;;;5.30;45.20;;;;;;5006820;28;20514;-47
2022/10/09 06:16:04;;;;;;;8.97;4.10;;;5.30;49.60;;;;;;5004803;28;20464;-48
2022/10/09 06:18:31;;;;;;;5.73;4.07;;;5.40;39.40;;;;;;5006345;28;20498;-48
2022/10/09 06:20:59;;;;;;;7.65;3.90;;;5.40;45.90;;;;;;4996955;28;20545;-48
2022/10/09 06:23:27;;;;;;;4.47;4.00;;;5.50;38.30;;;;;;5004834;28;20237;-48
2022/10/09 06:25:55;;;;;;;9.03;4.03;;;5.50;39.20;;;;;;5003498;28;20471;-47
2022/10/09 06:28:22;;;;;;;9.33;4.50;;;5.60;39.20;;;;;;5008159;28;20456;-48
2022/10/09 06:30:51;;;;;;;8.33;4.70;;;5.70;37.10;;;;;;5008270;28;20484;-48
2022/10/09 06:33:17;;;;;;;8.70;5.20;;;5.80;40.30;;;;;;5005908;28;20463;-48
2022/10/09 06:35:44;;;;;;;9.73;6.27;;;5.90;38.70;;;;;;5008521;28;20978;-48
2022/10/09 06:38:11;;;;;;;12.47;6.90;;;6.10;28.20;;;;;;5012770;28;20539;-47
2022/10/09 06:40:37;;;;;;;10.30;6.07;;;6.20;85.10;;;;;;5003503;28;20511;-47
2022/10/09 06:43:05;;;;;;;12.80;6.20;;;6.30;99.90;;;;;;5004010;28;20491;-47
2022/10/09 06:45:36;;;;;;;13.47;5.27;;;6.50;99.90;;;;;;5007231;28;20484;-47
2022/10/09 06:48:04;;;;;;;11.40;5.77;;;6.60;99.90;;;;;;5007806;28;20515;-47
2022/10/09 06:50:30;;;;;;;14.83;5.77;;;6.70;99.90;;;;;;5006917;28;20973;-47
2022/10/09 06:52:57;;;;;;;12.20;5.13;;;6.80;99.90;;;;;;5005507;28;20867;-47
2022/10/09 06:55:24;;;;;;;6.60;4.47;;;6.80;99.90;;;;;;5010337;28;20521;-47
2022/10/09 06:57:50;;;;;;;8.33;4.10;;;6.90;99.90;;;;;;5006598;28;20528;-47
2022/10/09 07:00:17;;;;;;;7.80;4.70;;;7.00;99.90;;;;;;5005528;28;20456;-47
2022/10/09 07:02:43;;;;;;;8.30;4.10;;;7.10;99.90;;;;;;5006009;28;21354;-47
2022/10/09 07:05:11;;;;;;;14.33;5.60;;;7.20;99.90;;;;;;5002455;28;20460;-46
2022/10/09 07:07:40;;;;;;;12.90;4.90;;;7.30;99.90;;;;;;5001801;28;21094;-47
2022/10/09 07:10:07;;;;;;;7.30;4.03;;;7.30;99.90;;;;;;5009425;28;21031;-47
2022/10/09 07:12:34;;;;;;;8.30;3.57;;;7.50;99.90;;;;;;5002369;28;21047;-46
2022/10/09 07:15:01;;;;;;;9.40;4.03;;;7.50;99.90;;;;;;5007943;28;20452;-47
2022/10/09 07:17:27;;;;;;;8.17;4.17;;;7.60;99.90;;;;;;5006012;28;20908;-47
2022/10/09 07:19:54;;;;;;;12.77;4.60;;;7.70;99.90;;;;;;5005457;28;20510;-46
2022/10/09 07:22:22;;;;;;;7.47;3.60;;;7.90;99.90;;;;;;5006973;28;20502;-46
2022/10/09 07:24:49;;;;;;;8.63;4.50;;;7.90;99.90;;;;;;5006298;28;20463;-48
2022/10/09 07:27:16;;;;;;;13.03;3.77;;;8.10;99.90;;;;;;5007232;28;20475;-47
2022/10/09 07:29:43;;;;;;;21.07;13.20;;;8.10;99.90;;;;;;5006461;28;20479;-47
2022/10/09 07:32:09;;;;;;;12.77;5.57;;;8.20;99.90;;;;;;5007302;28;20607;-46
2022/10/09 07:34:36;;;;;;;7.43;3.67;;;8.30;99.90;;;;;;5007109;28;20526;-47
2022/10/09 07:37:02;;;;;;;6.70;4.30;;;8.50;99.90;;;;;;5006904;28;20483;-46
2022/10/09 07:39:30;;;;;;;16.40;7.30;;;8.60;99.90;;;;;;5007778;28;20456;-46
2022/10/09 07:41:57;;;;;;;17.70;10.20;;;8.70;99.90;;;;;;5008503;28;20541;-46
2022/10/09 07:44:24;;;;;;;4.10;3.40;;;8.70;99.90;;;;;;5011332;28;20483;-46
2022/10/09 07:46:51;;;;;;;6.87;3.93;;;8.80;99.90;;;;;;5013103;28;21169;-47
2022/10/09 07:49:18;;;;;;;9.70;4.10;;;8.90;99.90;;;;;;5017474;28;20458;-46
2022/10/09 07:51:44;;;;;;;7.50;3.30;;;9.00;99.90;;;;;;5010284;28;20965;-47
2022/10/09 07:54:11;;;;;;;5.40;3.30;;;9.10;99.90;;;;;;5009481;28;20497;-46
2022/10/09 07:56:39;;;;;;;7.17;2.97;;;9.10;21.10;;;;;;5013624;28;20479;-46
2022/10/09 07:59:08;;;;;;;4.67;3.20;;;9.10;29.70;;;;;;5009830;28;20464;-46
2022/10/09 08:01:35;;;;;;;4.43;2.67;;;9.20;32.80;;;;;;5009439;28;20513;-46
2022/10/09 08:04:04;;;;;;;13.37;3.90;;;9.20;38.60;;;;;;5007929;28;20459;-47
2022/10/09 08:06:31;;;;;;;8.13;3.80;;;9.30;36.80;;;;;;5006211;28;20605;-47
2022/10/09 08:08:59;;;;;;;8.10;3.10;;;9.40;37.00;;;;;;5001326;28;20584;-47
2022/10/09 08:11:27;;;;;;;13.00;7.90;;;9.40;35.90;;;;;;5005001;28;20509;-47
2022/10/09 08:13:56;;;;;;;4.30;2.87;;;9.50;42.10;;;;;;5004383;28;20491;-46
2022/10/09 08:16:23;;;;;;;6.57;3.40;;;9.60;49.70;;;;;;5001395;28;20634;-47
2022/10/09 08:18:54;;;;;;;8.07;2.60;;;9.70;52.20;;;;;;4998389;28;20561;-45
2022/10/09 08:21:21;;;;;;;7.93;3.13;;;9.80;51.50;;;;;;5002968;28;20483;-48
2022/10/09 08:23:52;;;;;;;8.83;3.63;;;9.90;54.50;;;;;;5006276;28;20514;-50
2022/10/09 08:26:21;;;;;;;5.57;2.57;;;10.00;60.40;;;;;;5004316;28;20479;-50
2022/10/09 08:28:50;;;;;;;9.90;3.97;;;10.10;65.30;;;;;;5003534;28;20455;-50
2022/10/09 08:31:19;;;;;;;17.63;3.20;;;10.20;66.20;;;;;;5007936;28;20580;-49
2022/10/09 08:33:46;;;;;;;7.43;2.97;;;10.30;68.80;;;;;;5004480;28;20495;-51
2022/10/09 08:36:14;;;;;;;4.30;2.50;;;10.40;73.60;;;;;;5005488;28;20479;-50
2022/10/09 08:38:41;;;;;;;8.80;3.13;;;10.50;82.40;;;;;;5006110;28;20550;-50
2022/10/09 08:41:13;;;;;;;19.30;4.10;;;10.70;84.00;;;;;;5008989;28;21042;-49
2022/10/09 08:43:43;;;;;;;11.00;2.97;;;11.60;99.90;;;;;;5009758;28;20522;-50
2022/10/09 08:46:16;;;;;;;14.43;3.20;;;12.40;99.90;;;;;;5014152;28;20464;-51
2022/10/09 08:48:45;;;;;;;6.13;3.20;;;12.30;99.90;;;;;;5014289;28;20506;-50
2022/10/09 08:51:18;;;;;;;5.90;3.03;;;12.60;99.90;;;;;;5011283;28;20833;-50
2022/10/09 08:53:49;;;;;;;11.57;3.50;;;12.70;99.90;;;;;;5012759;28;20546;-50
2022/10/09 08:56:16;;;;;;;6.97;3.50;;;12.60;99.90;;;;;;5007930;28;20503;-50
2022/10/09 08:58:44;;;;;;;9.87;3.87;;;12.50;99.90;;;;;;5012648;28;20483;-50
2022/10/09 09:01:18;;;;;;;12.13;3.80;;;12.40;99.90;;;;;;5005036;28;20491;-49
2022/10/09 09:03:59;;;;;;;7.23;3.20;;;12.60;99.90;;;;;;5013498;28;20529;-51
2022/10/09 09:06:34;;;;;;;9.20;3.33;;;13.10;99.90;;;;;;5013176;28;20526;-50
2022/10/09 09:09:09;;;;;;;16.13;4.67;;;12.80;99.90;;;;;;5012257;28;20463;-51
2022/10/09 09:11:45;;;;;;;7.70;3.50;;;12.60;99.90;;;;;;5011761;28;20537;-50
2022/10/09 09:14:25;;;;;;;19.87;5.53;;;12.70;99.90;;;;;;5011633;28;20950;-50
2022/10/09 09:17:00;;;;;;;17.27;4.53;;;12.60;99.90;;;;;;5012164;28;20479;-51
2022/10/09 09:19:48;;;;;;;9.90;4.33;;;12.80;99.90;;;;;;5013884;28;20494;-50
2022/10/09 09:22:17;;;;;;;16.57;6.70;;;12.90;99.90;;;;;;5011710;28;20766;-51
2022/10/09 09:24:47;;;;;;;19.23;8.50;;;13.00;99.90;;;;;;5010993;28;20456;-51
2022/10/09 09:27:18;;;;;;;17.83;7.07;;;13.30;99.90;;;;;;5013439;28;21044;-50
2022/10/09 09:29:49;;;;;;;22.90;9.00;;;13.40;99.90;;;;;;5008423;28;21037;-50
2022/10/09 09:32:20;;;;;;;19.57;7.13;;;13.30;99.90;;;;;;5009185;28;20455;-50
2022/10/09 09:34:48;;;;;;;14.50;6.47;;;13.30;99.90;;;;;;5007112;28;20941;-49
2022/10/09 09:37:15;;;;;;;20.83;6.77;;;13.40;99.90;;;;;;5012617;28;20499;-50
2022/10/09 09:39:43;;;;;;;18.00;6.00;;;13.40;99.90;;;;;;5013168;28;20506;-50
2022/10/09 09:42:15;;;;;;;23.20;6.60;;;13.70;99.90;;;;;;5009903;28;20460;-50
2022/10/09 09:44:47;;;;;;;13.93;5.90;;;13.60;99.90;;;;;;5008705;28;20495;-51
2022/10/09 09:47:18;;;;;;;8.20;3.87;;;13.90;99.90;;;;;;5009578;28;21069;-51
2022/10/09 09:49:56;;;;;;;14.87;4.13;;;14.30;90.60;;;;;;5004849;28;20447;-50
2022/10/09 09:52:26;;;;;;;14.53;3.70;;;14.20;99.10;;;;;;5011933;28;20447;-50
2022/10/09 09:54:54;;;;;;;9.90;4.10;;;14.30;99.90;;;;;;5012854;28;20866;-51
2022/10/09 09:57:30;;;;;;;10.07;3.23;;;14.20;24.30;;;;;;5008019;28;20487;-50
2022/10/09 10:00:17;;;;;;;11.83;3.03;;;14.10;27.70;;;;;;5007551;28;20517;-50
2022/10/09 10:02:44;;;;;;;6.60;3.13;;;14.00;82.60;;;;;;5013451;28;20454;-50
2022/10/09 10:05:20;;;;;;;12.83;3.50;;;14.00;99.90;;;;;;5014316;28;20518;-47
2022/10/09 10:07:48;;;;;;;10.33;3.00;;;14.00;88.80;;;;;;5012278;28;20475;-48
2022/10/09 10:10:18;;;;;;;17.77;4.00;;;14.00;99.90;;;;;;5009891;28;20985;-48
2022/10/09 10:12:47;;;;;;;13.10;4.13;;;14.00;21.40;;;;;;5011121;28;20467;-48
2022/10/09 10:15:22;;;;;;;17.27;4.00;;;14.00;99.90;;;;;;5006107;28;20491;-48
2022/10/09 10:17:54;;;;;;;13.80;3.60;;;14.10;24.40;;;;;;5005826;28;20565;-48
2022/10/09 10:20:23;;;;;;;9.17;3.47;;;14.10;25.70;;;;;;5008329;28;20459;-48
2022/10/09 10:22:58;;;;;;;8.80;3.10;;;14.20;23.60;;;;;;5059483;27;20593;-48
2022/10/09 10:25:29;;;;;;;12.23;3.03;;;14.10;26.20;;;;;;5064012;28;20516;-47
2022/10/09 10:28:02;;;;;;;13.83;3.97;;;14.20;32.40;;;;;;5063937;28;20473;-47
2022/10/09 10:30:29;;;;;;;10.10;3.00;;;14.20;40.80;;;;;;5060858;28;20458;-48
2022/10/09 10:33:02;;;;;;;10.40;2.40;;;14.20;36.20;;;;;;5060850;28;20457;-48
2022/10/09 10:35:32;;;;;;;13.27;3.90;;;14.30;31.10;;;;;;5065534;28;20493;-47
2022/10/09 10:38:05;;;;;;;14.50;3.50;;;14.30;33.50;;;;;;5069713;28;20490;-47
2022/10/09 10:40:36;;;;;;;10.83;3.30;;;14.40;38.40;;;;;;5084361;28;20465;-48
2022/10/09 10:43:14;;;;;;;15.50;2.83;;;14.40;40.60;;;;;;5068254;28;20443;-47
2022/10/09 10:45:55;;;;;;;15.83;3.17;;;14.40;36.80;;;;;;5066579;28;20555;-48
2022/10/09 10:48:25;;;;;;;10.70;2.60;;;14.40;49.00;;;;;;5068564;28;20825;-48
2022/10/09 10:51:01;;;;;;;10.40;2.60;;;14.50;43.90;;;;;;5067955;28;20481;-48
2022/10/09 10:53:41;;;;;;;12.57;2.60;;;14.50;45.60;;;;;;5063158;28;20464;-48
2022/10/09 10:56:15;;;;;;;12.90;2.50;;;14.60;58.90;;;;;;5058967;28;20527;-48
2022/10/09 10:58:50;;;;;;;6.50;2.30;;;14.70;60.90;;;;;;5065855;28;20457;-50
2022/10/09 11:01:29;;;;;;;10.33;2.07;;;14.80;60.30;;;;;;5057850;28;20549;-50
2022/10/09 11:04:33;;;;;;;8.57;1.90;;;14.80;64.40;;;;;;5063859;28;20461;-50
2022/10/09 11:07:09;;;;;;;10.07;4.10;;;14.90;78.10;;;;;;5059310;28;20546;-51
2022/10/09 11:09:44;;;;;;;6.73;2.17;;;15.00;88.80;;;;;;5057227;28;20461;-51
2022/10/09 11:12:17;;;;;;;5.40;2.23;;;15.00;95.80;;;;;;5063890;28;20841;-50
2022/10/09 11:14:52;;;;;;;5.90;1.70;;;15.10;99.90;;;;;;5058977;28;20892;-50
2022/10/09 11:17:27;;;;;;;9.67;2.20;;;14.90;99.90;;;;;;5063643;28;20533;-50
2022/10/09 11:20:15;;;;;;;8.07;2.60;;;14.90;99.90;;;;;;5056911;28;21205;-50
2022/10/09 11:23:00;;;;;;;6.73;2.27;;;15.00;94.80;;;;;;5064182;28;20504;-50
2022/10/09 11:25:33;;;;;;;9.33;1.90;;;15.00;99.90;;;;;;5065566;28;20490;-50
2022/10/09 11:28:04;;;;;;;9.13;2.20;;;15.00;99.90;;;;;;5065047;28;20538;-50
2022/10/09 11:30:37;;;;;;;4.10;2.67;;;15.00;99.90;;;;;;5059417;28;20488;-50
2022/10/09 11:33:17;;;;;;;5.00;1.53;;;14.90;99.90;;;;;;5061054;28;20500;-50
2022/10/09 11:35:48;;;;;;;8.30;2.00;;;15.00;99.90;;;;;;5048349;28;20520;-51
2022/10/09 11:38:25;;;;;;;3.83;1.70;;;15.10;99.90;;;;;;5053274;28;20438;-50
2022/10/09 11:40:53;;;;;;;7.50;1.73;;;15.20;99.90;;;;;;5048498;28;20437;-50
2022/10/09 11:43:43;;;;;;;9.20;1.77;;;15.10;99.90;;;;;;5054488;28;20443;-49
2022/10/09 11:46:19;;;;;;;4.00;1.27;;;15.10;99.90;;;;;;5044893;28;20497;-48
2022/10/09 11:48:54;;;;;;;5.67;1.67;;;15.10;99.90;;;;;;5052242;28;20527;-48
2022/10/09 11:51:29;;;;;;;7.90;1.90;;;15.10;99.90;;;;;;5053911;28;20813;-48
2022/10/09 11:53:56;;;;;;;5.63;1.70;;;15.00;99.90;;;;;;5054230;28;20449;-49
2022/10/09 11:56:25;;;;;;;8.83;1.70;;;15.10;99.90;;;;;;5053161;28;20469;-49
2022/10/09 11:58:57;;;;;;;5.87;1.60;;;15.30;99.90;;;;;;5049553;28;20492;-49
2022/10/09 12:01:26;;;;;;;5.00;1.80;;;15.50;99.90;;;;;;5050429;28;20492;-48
2022/10/09 12:04:02;;;;;;;3.03;1.20;;;15.30;99.90;;;;;;5052769;28;20461;-49
2022/10/09 12:06:29;;;;;;;19.20;2.30;;;15.00;99.90;;;;;;5047071;28;20480;-47
2022/10/09 12:08:59;;;;;;;3.83;1.60;;;14.90;99.90;;;;;;5052733;28;20462;-47
2022/10/09 12:11:28;;;;;;;8.47;1.90;;;14.80;99.90;;;;;;5048893;28;20463;-47
2022/10/09 12:13:56;;;;;;;4.60;1.70;;;14.90;99.90;;;;;;5050703;28;20917;-46
2022/10/09 12:16:38;;;;;;;10.77;2.00;;;15.00;99.90;;;;;;5051432;28;20481;-47
2022/10/09 12:19:14;;;;;;;6.60;1.67;;;15.10;99.90;;;;;;5045166;28;20977;-47
2022/10/09 12:21:48;;;;;;;4.20;1.60;;;15.20;99.90;;;;;;5040780;28;20486;-47
2022/10/09 12:24:17;;;;;;;2.60;1.20;;;15.30;99.90;;;;;;5051706;28;20461;-46
2022/10/09 12:26:47;;;;;;;8.63;1.90;;;15.40;99.90;;;;;;5039802;28;20474;-47
2022/10/09 12:29:21;;;;;;;4.93;1.60;;;15.40;99.90;;;;;;5044100;28;20948;-47
2022/10/09 12:31:52;;;;;;;5.40;1.90;;;15.50;99.90;;;;;;5044875;28;20457;-49
2022/10/09 12:34:23;;;;;;;4.37;1.40;;;15.40;99.90;;;;;;5052257;28;20540;-47
2022/10/09 12:36:50;;;;;;;5.37;2.03;;;15.20;99.90;;;;;;5044065;28;20796;-48
2022/10/09 12:39:20;;;;;;;7.33;1.47;;;15.10;99.90;;;;;;5051956;28;20501;-48
2022/10/09 12:41:52;;;;;;;5.87;1.23;;;15.20;99.90;;;;;;5037158;28;20564;-48
2022/10/09 12:44:28;;;;;;;9.70;1.90;;;15.30;99.90;;;;;;5045154;28;20498;-47
2022/10/09 12:46:59;;;;;;;4.67;1.47;;;15.40;99.90;;;;;;5048049;28;20513;-48
2022/10/09 12:49:25;;;;;;;7.80;1.53;;;15.60;99.90;;;;;;5047815;28;20563;-48
2022/10/09 12:51:54;;;;;;;5.10;1.70;;;15.70;99.90;;;;;;5049244;28;20461;-48
2022/10/09 12:54:23;;;;;;;10.87;2.10;;;15.80;99.90;;;;;;5051678;28;20952;-48
2022/10/09 12:56:53;;;;;;;3.90;1.27;;;15.80;99.90;;;;;;5045870;28;20972;-47
2022/10/09 12:59:22;;;;;;;8.10;1.57;;;16.10;99.90;;;;;;5047580;28;20520;-48
2022/10/09 13:01:52;;;;;;;4.00;1.40;;;16.10;99.90;;;;;;5042421;28;20518;-48
2022/10/09 13:04:26;;;;;;;4.50;1.73;;;16.50;99.90;;;;;;5047687;28;20462;-48